sensor_id;sensor_type;location;lat;lon;timestamp;temperature;humidity
22426;DHT22;11380;50.822;15.790;2023-08-06T00:04:19;14.50;99.90
22426;DHT22;11380;50.822;15.790;2023-08-06T00:09:27;14.50;99.90
22426;DHT22;11380;50.822;15.790;2023-08-06T00:14:33;14.40;99.90
22426;DHT22;11380;50.822;15.790;2023-08-06T00:19:41;14.40;99.90
22426;DHT22;11380;50.822;15.790;2023-08-06T00:24:47;14.50;99.90
22426;DHT22;11380;50.822;15.790;2023-08-06T00:29:55;14.30;99.90
22426;DHT22;11380;50.822;15.790;2023-08-06T00:35:01;14.40;99.90
22426;DHT22;11380;50.822;15.790;2023-08-06T00:40:09;14.40;99.90
22426;DHT22;11380;50.822;15.790;2023-08-06T00:45:17;14.30;99.90
22426;DHT22;11380;50.822;15.790;2023-08-06T00:50:24;14.30;99.90
22426;DHT22;11380;50.822;15.790;2023-08-06T00:55:32;14.30;99.90
22426;DHT22;11380;50.822;15.790;2023-08-06T01:00:40;14.20;99.90
22426;DHT22;11380;50.822;15.790;2023-08-06T01:05:46;14.20;99.90
22426;DHT22;11380;50.822;15.790;2023-08-06T01:11:05;14.10;99.90
22426;DHT22;11380;50.822;15.790;2023-08-06T01:16:29;14.10;99.90
22426;DHT22;11380;50.822;15.790;2023-08-06T01:21:37;14.10;99.90
22426;DHT22;11380;50.822;15.790;2023-08-06T01:26:51;14.20;99.90
22426;DHT22;11380;50.822;15.790;2023-08-06T01:31:57;14.10;99.90
22426;DHT22;11380;50.822;15.790;2023-08-06T01:37:04;14.20;99.90
22426;DHT22;11380;50.822;15.790;2023-08-06T01:42:11;14.20;99.90
22426;DHT22;11380;50.822;15.790;2023-08-06T01:47:18;14.20;99.90
22426;DHT22;11380;50.822;15.790;2023-08-06T01:52:24;14.20;99.90
22426;DHT22;11380;50.822;15.790;2023-08-06T01:57:31;14.20;99.90
22426;DHT22;11380;50.822;15.790;2023-08-06T02:02:38;14.10;99.90
22426;DHT22;11380;50.822;15.790;2023-08-06T02:07:47;14.10;99.90
22426;DHT22;11380;50.822;15.790;2023-08-06T02:12:55;14.10;99.90
22426;DHT22;11380;50.822;15.790;2023-08-06T02:18:03;14.00;99.90
22426;DHT22;11380;50.822;15.790;2023-08-06T02:23:11;14.10;99.90
22426;DHT22;11380;50.822;15.790;2023-08-06T02:28:19;14.00;99.90
22426;DHT22;11380;50.822;15.790;2023-08-06T02:33:27;14.00;99.90
22426;DHT22;11380;50.822;15.790;2023-08-06T02:38:34;13.90;99.90
22426;DHT22;11380;50.822;15.790;2023-08-06T02:43:40;14.00;99.90
22426;DHT22;11380;50.822;15.790;2023-08-06T02:48:47;13.80;99.90
22426;DHT22;11380;50.822;15.790;2023-08-06T02:53:53;13.90;99.90
22426;DHT22;11380;50.822;15.790;2023-08-06T02:59:00;14.00;99.90
22426;DHT22;11380;50.822;15.790;2023-08-06T03:04:09;13.80;99.90
22426;DHT22;11380;50.822;15.790;2023-08-06T03:09:17;13.80;99.90
22426;DHT22;11380;50.822;15.790;2023-08-06T03:14:24;13.80;99.90
22426;DHT22;11380;50.822;15.790;2023-08-06T03:19:33;13.70;99.90
22426;DHT22;11380;50.822;15.790;2023-08-06T03:24:40;13.80;99.90
22426;DHT22;11380;50.822;15.790;2023-08-06T03:29:49;13.70;99.90
22426;DHT22;11380;50.822;15.790;2023-08-06T03:34:56;13.70;99.90
22426;DHT22;11380;50.822;15.790;2023-08-06T03:40:03;13.70;99.90
22426;DHT22;11380;50.822;15.790;2023-08-06T03:45:11;13.70;99.90
22426;DHT22;11380;50.822;15.790;2023-08-06T03:50:18;13.70;99.90
22426;DHT22;11380;50.822;15.790;2023-08-06T03:55:25;13.70;99.90
22426;DHT22;11380;50.822;15.790;2023-08-06T04:00:32;13.70;99.90
22426;DHT22;11380;50.822;15.790;2023-08-06T04:05:39;13.70;99.90
22426;DHT22;11380;50.822;15.790;2023-08-06T04:10:53;13.70;99.90
22426;DHT22;11380;50.822;15.790;2023-08-06T04:16:03;13.60;99.90
22426;DHT22;11380;50.822;15.790;2023-08-06T04:21:11;13.70;99.90
22426;DHT22;11380;50.822;15.790;2023-08-06T04:26:18;13.70;99.90
22426;DHT22;11380;50.822;15.790;2023-08-06T04:31:24;13.70;99.90
22426;DHT22;11380;50.822;15.790;2023-08-06T04:36:31;13.60;99.90
22426;DHT22;11380;50.822;15.790;2023-08-06T04:41:38;13.60;99.90
22426;DHT22;11380;50.822;15.790;2023-08-06T04:46:45;13.60;99.90
22426;DHT22;11380;50.822;15.790;2023-08-06T04:51:52;13.60;99.90
22426;DHT22;11380;50.822;15.790;2023-08-06T04:56:59;13.60;99.90
22426;DHT22;11380;50.822;15.790;2023-08-06T05:02:06;13.60;99.90
22426;DHT22;11380;50.822;15.790;2023-08-06T05:07:13;13.70;99.90
22426;DHT22;11380;50.822;15.790;2023-08-06T05:12:21;13.70;99.90
22426;DHT22;11380;50.822;15.790;2023-08-06T05:17:27;13.70;99.90
22426;DHT22;11380;50.822;15.790;2023-08-06T05:22:34;13.70;99.90
22426;DHT22;11380;50.822;15.790;2023-08-06T05:27:41;13.80;99.90
22426;DHT22;11380;50.822;15.790;2023-08-06T05:32:48;13.80;99.90
22426;DHT22;11380;50.822;15.790;2023-08-06T05:37:55;13.70;99.90
22426;DHT22;11380;50.822;15.790;2023-08-06T05:43:02;13.70;99.90
22426;DHT22;11380;50.822;15.790;2023-08-06T05:48:09;13.60;99.90
22426;DHT22;11380;50.822;15.790;2023-08-06T05:53:17;13.60;99.90
22426;DHT22;11380;50.822;15.790;2023-08-06T05:58:24;13.70;99.90
22426;DHT22;11380;50.822;15.790;2023-08-06T06:03:33;13.70;99.90
22426;DHT22;11380;50.822;15.790;2023-08-06T06:08:40;13.60;99.90
22426;DHT22;11380;50.822;15.790;2023-08-06T06:13:53;13.60;99.90
22426;DHT22;11380;50.822;15.790;2023-08-06T06:18:58;13.60;99.90
22426;DHT22;11380;50.822;15.790;2023-08-06T06:24:05;13.70;99.90
22426;DHT22;11380;50.822;15.790;2023-08-06T06:29:13;13.70;99.90
22426;DHT22;11380;50.822;15.790;2023-08-06T06:34:20;13.70;99.90
22426;DHT22;11380;50.822;15.790;2023-08-06T06:39:27;13.80;99.90
22426;DHT22;11380;50.822;15.790;2023-08-06T06:44:34;13.80;99.90
22426;DHT22;11380;50.822;15.790;2023-08-06T06:49:41;13.70;99.90
22426;DHT22;11380;50.822;15.790;2023-08-06T06:54:48;13.70;99.90
22426;DHT22;11380;50.822;15.790;2023-08-06T06:59:55;13.80;99.90
22426;DHT22;11380;50.822;15.790;2023-08-06T07:05:03;13.80;99.90
22426;DHT22;11380;50.822;15.790;2023-08-06T07:10:12;13.80;99.90
22426;DHT22;11380;50.822;15.790;2023-08-06T07:15:19;13.70;99.90
22426;DHT22;11380;50.822;15.790;2023-08-06T07:20:25;13.80;99.90
22426;DHT22;11380;50.822;15.790;2023-08-06T07:25:34;13.80;99.90
22426;DHT22;11380;50.822;15.790;2023-08-06T07:30:42;13.80;99.90
22426;DHT22;11380;50.822;15.790;2023-08-06T07:35:50;13.90;99.90
22426;DHT22;11380;50.822;15.790;2023-08-06T07:40:57;13.90;99.90
22426;DHT22;11380;50.822;15.790;2023-08-06T07:46:04;13.90;99.90
22426;DHT22;11380;50.822;15.790;2023-08-06T07:51:11;13.90;99.90
22426;DHT22;11380;50.822;15.790;2023-08-06T07:56:17;13.90;99.90
22426;DHT22;11380;50.822;15.790;2023-08-06T08:01:24;13.90;99.90
22426;DHT22;11380;50.822;15.790;2023-08-06T08:06:30;14.00;99.90
22426;DHT22;11380;50.822;15.790;2023-08-06T08:11:37;14.00;99.90
22426;DHT22;11380;50.822;15.790;2023-08-06T08:16:42;14.10;99.90
22426;DHT22;11380;50.822;15.790;2023-08-06T08:21:50;14.10;99.90
22426;DHT22;11380;50.822;15.790;2023-08-06T08:26:57;14.10;99.90
22426;DHT22;11380;50.822;15.790;2023-08-06T08:32:04;14.10;99.90
22426;DHT22;11380;50.822;15.790;2023-08-06T08:37:11;14.20;99.90
22426;DHT22;11380;50.822;15.790;2023-08-06T08:42:19;14.20;99.90
22426;DHT22;11380;50.822;15.790;2023-08-06T08:47:27;14.30;99.90
22426;DHT22;11380;50.822;15.790;2023-08-06T08:52:36;14.30;99.90
22426;DHT22;11380;50.822;15.790;2023-08-06T08:57:46;14.20;99.90
22426;DHT22;11380;50.822;15.790;2023-08-06T09:02:53;14.20;99.90
22426;DHT22;11380;50.822;15.790;2023-08-06T09:08:03;14.20;99.90
22426;DHT22;11380;50.822;15.790;2023-08-06T09:13:10;14.30;99.90
22426;DHT22;11380;50.822;15.790;2023-08-06T09:18:25;14.30;99.90
22426;DHT22;11380;50.822;15.790;2023-08-06T09:23:35;14.40;99.90
22426;DHT22;11380;50.822;15.790;2023-08-06T09:28:42;14.50;99.90
22426;DHT22;11380;50.822;15.790;2023-08-06T09:33:50;14.50;99.90
22426;DHT22;11380;50.822;15.790;2023-08-06T09:38:57;14.60;99.90
22426;DHT22;11380;50.822;15.790;2023-08-06T09:44:04;14.70;99.90
22426;DHT22;11380;50.822;15.790;2023-08-06T09:49:11;14.80;99.90
22426;DHT22;11380;50.822;15.790;2023-08-06T09:54:18;14.80;99.90
22426;DHT22;11380;50.822;15.790;2023-08-06T09:59:26;14.70;99.90
22426;DHT22;11380;50.822;15.790;2023-08-06T10:04:33;14.90;99.90
22426;DHT22;11380;50.822;15.790;2023-08-06T10:09:42;14.90;99.90
22426;DHT22;11380;50.822;15.790;2023-08-06T10:14:50;14.80;99.90
22426;DHT22;11380;50.822;15.790;2023-08-06T10:19:59;14.80;99.90
22426;DHT22;11380;50.822;15.790;2023-08-06T10:25:06;15.00;99.90
22426;DHT22;11380;50.822;15.790;2023-08-06T10:30:24;14.90;99.90
22426;DHT22;11380;50.822;15.790;2023-08-06T10:46:28;15.10;99.90
22426;DHT22;11380;50.822;15.790;2023-08-06T10:51:36;14.90;99.90
22426;DHT22;11380;50.822;15.790;2023-08-06T10:56:44;15.10;99.90
22426;DHT22;11380;50.822;15.790;2023-08-06T11:01:53;15.10;99.90
22426;DHT22;11380;50.822;15.790;2023-08-06T11:07:00;15.00;99.90
22426;DHT22;11380;50.822;15.790;2023-08-06T11:12:11;15.10;99.90
22426;DHT22;11380;50.822;15.790;2023-08-06T11:17:19;15.10;99.90
22426;DHT22;11380;50.822;15.790;2023-08-06T11:22:26;14.90;99.90
22426;DHT22;11380;50.822;15.790;2023-08-06T11:27:33;14.90;99.90
22426;DHT22;11380;50.822;15.790;2023-08-06T11:32:47;15.00;99.90
22426;DHT22;11380;50.822;15.790;2023-08-06T11:37:54;15.10;99.90
22426;DHT22;11380;50.822;15.790;2023-08-06T11:43:01;15.10;99.90
22426;DHT22;11380;50.822;15.790;2023-08-06T11:48:08;14.90;99.90
22426;DHT22;11380;50.822;15.790;2023-08-06T11:53:17;15.10;99.90
22426;DHT22;11380;50.822;15.790;2023-08-06T11:58:24;15.00;99.90
22426;DHT22;11380;50.822;15.790;2023-08-06T12:03:31;15.00;99.90
22426;DHT22;11380;50.822;15.790;2023-08-06T12:08:38;15.00;99.90
22426;DHT22;11380;50.822;15.790;2023-08-06T12:13:50;15.00;99.90
22426;DHT22;11380;50.822;15.790;2023-08-06T12:18:58;15.00;99.90
22426;DHT22;11380;50.822;15.790;2023-08-06T12:24:05;15.00;99.90
22426;DHT22;11380;50.822;15.790;2023-08-06T12:29:13;15.00;99.90
22426;DHT22;11380;50.822;15.790;2023-08-06T12:34:20;15.10;99.90
22426;DHT22;11380;50.822;15.790;2023-08-06T12:39:28;15.00;99.90
22426;DHT22;11380;50.822;15.790;2023-08-06T12:44:36;15.00;99.90
22426;DHT22;11380;50.822;15.790;2023-08-06T12:49:43;15.00;99.90
22426;DHT22;11380;50.822;15.790;2023-08-06T12:54:50;15.00;99.90
22426;DHT22;11380;50.822;15.790;2023-08-06T12:59:57;15.20;99.90
22426;DHT22;11380;50.822;15.790;2023-08-06T13:05:03;15.10;99.90
22426;DHT22;11380;50.822;15.790;2023-08-06T13:10:12;15.40;99.90
22426;DHT22;11380;50.822;15.790;2023-08-06T13:15:18;15.10;99.90
22426;DHT22;11380;50.822;15.790;2023-08-06T13:20:32;15.30;99.90
22426;DHT22;11380;50.822;15.790;2023-08-06T13:25:39;15.20;99.90
22426;DHT22;11380;50.822;15.790;2023-08-06T13:30:46;15.20;99.90
22426;DHT22;11380;50.822;15.790;2023-08-06T13:35:53;15.20;99.90
22426;DHT22;11380;50.822;15.790;2023-08-06T13:41:00;15.30;99.90
22426;DHT22;11380;50.822;15.790;2023-08-06T13:46:08;15.30;99.90
22426;DHT22;11380;50.822;15.790;2023-08-06T13:51:17;15.30;99.90
22426;DHT22;11380;50.822;15.790;2023-08-06T13:56:24;15.10;99.90
22426;DHT22;11380;50.822;15.790;2023-08-06T14:01:30;15.00;99.90
22426;DHT22;11380;50.822;15.790;2023-08-06T14:06:39;15.00;99.90
22426;DHT22;11380;50.822;15.790;2023-08-06T14:11:46;15.10;99.90
22426;DHT22;11380;50.822;15.790;2023-08-06T14:16:53;15.10;99.90
22426;DHT22;11380;50.822;15.790;2023-08-06T14:22:02;15.10;99.90
22426;DHT22;11380;50.822;15.790;2023-08-06T14:27:09;15.30;99.90
22426;DHT22;11380;50.822;15.790;2023-08-06T14:32:16;15.00;99.90
22426;DHT22;11380;50.822;15.790;2023-08-06T14:37:23;14.90;99.90
22426;DHT22;11380;50.822;15.790;2023-08-06T14:42:30;14.80;99.90
22426;DHT22;11380;50.822;15.790;2023-08-06T14:47:38;14.80;99.90
22426;DHT22;11380;50.822;15.790;2023-08-06T14:52:44;14.60;99.90
22426;DHT22;11380;50.822;15.790;2023-08-06T14:57:53;14.60;99.90
22426;DHT22;11380;50.822;15.790;2023-08-06T15:03:00;14.40;99.90
22426;DHT22;11380;50.822;15.790;2023-08-06T15:08:08;14.60;99.90
22426;DHT22;11380;50.822;15.790;2023-08-06T15:13:15;14.50;99.90
22426;DHT22;11380;50.822;15.790;2023-08-06T15:18:23;14.70;99.90
22426;DHT22;11380;50.822;15.790;2023-08-06T15:23:30;14.80;99.90
22426;DHT22;11380;50.822;15.790;2023-08-06T15:28:37;14.70;99.90
22426;DHT22;11380;50.822;15.790;2023-08-06T15:33:43;14.80;99.90
22426;DHT22;11380;50.822;15.790;2023-08-06T15:38:50;14.90;99.90
22426;DHT22;11380;50.822;15.790;2023-08-06T15:43:57;14.90;99.90
22426;DHT22;11380;50.822;15.790;2023-08-06T15:49:04;14.90;99.90
22426;DHT22;11380;50.822;15.790;2023-08-06T15:54:11;14.80;99.90
22426;DHT22;11380;50.822;15.790;2023-08-06T15:59:21;14.80;99.90
22426;DHT22;11380;50.822;15.790;2023-08-06T16:04:31;14.90;99.90
22426;DHT22;11380;50.822;15.790;2023-08-06T16:09:38;14.80;99.90
22426;DHT22;11380;50.822;15.790;2023-08-06T16:14:45;14.80;99.90
22426;DHT22;11380;50.822;15.790;2023-08-06T16:19:52;14.60;99.90
22426;DHT22;11380;50.822;15.790;2023-08-06T16:24:59;14.70;99.90
22426;DHT22;11380;50.822;15.790;2023-08-06T16:30:06;14.60;99.90
22426;DHT22;11380;50.822;15.790;2023-08-06T16:35:14;14.50;99.90
22426;DHT22;11380;50.822;15.790;2023-08-06T16:40:22;14.40;99.90
22426;DHT22;11380;50.822;15.790;2023-08-06T16:45:30;14.40;99.90
22426;DHT22;11380;50.822;15.790;2023-08-06T16:50:46;14.30;99.90
22426;DHT22;11380;50.822;15.790;2023-08-06T16:55:54;14.40;99.90
22426;DHT22;11380;50.822;15.790;2023-08-06T17:01:05;14.30;99.90
22426;DHT22;11380;50.822;15.790;2023-08-06T17:06:12;14.30;99.90
22426;DHT22;11380;50.822;15.790;2023-08-06T17:11:20;14.20;99.90
22426;DHT22;11380;50.822;15.790;2023-08-06T17:16:29;14.20;99.90
22426;DHT22;11380;50.822;15.790;2023-08-06T17:21:38;14.20;99.90
22426;DHT22;11380;50.822;15.790;2023-08-06T17:26:48;14.20;99.90
22426;DHT22;11380;50.822;15.790;2023-08-06T17:31:57;14.10;99.90
22426;DHT22;11380;50.822;15.790;2023-08-06T17:37:04;14.10;99.90
22426;DHT22;11380;50.822;15.790;2023-08-06T17:42:11;14.20;99.90
22426;DHT22;11380;50.822;15.790;2023-08-06T17:47:19;14.20;99.90
22426;DHT22;11380;50.822;15.790;2023-08-06T17:52:27;14.20;99.90
22426;DHT22;11380;50.822;15.790;2023-08-06T17:57:34;14.30;99.90
22426;DHT22;11380;50.822;15.790;2023-08-06T18:02:42;14.40;99.90
22426;DHT22;11380;50.822;15.790;2023-08-06T18:07:50;14.40;99.90
22426;DHT22;11380;50.822;15.790;2023-08-06T18:12:56;14.50;99.90
22426;DHT22;11380;50.822;15.790;2023-08-06T18:18:04;14.50;99.90
22426;DHT22;11380;50.822;15.790;2023-08-06T18:23:11;14.50;99.90
22426;DHT22;11380;50.822;15.790;2023-08-06T18:28:18;14.40;99.90
22426;DHT22;11380;50.822;15.790;2023-08-06T18:33:25;14.40;99.90
22426;DHT22;11380;50.822;15.790;2023-08-06T18:38:33;14.30;99.90
22426;DHT22;11380;50.822;15.790;2023-08-06T18:43:40;14.40;99.90
22426;DHT22;11380;50.822;15.790;2023-08-06T18:48:47;14.40;99.90
22426;DHT22;11380;50.822;15.790;2023-08-06T18:53:54;14.30;99.90
22426;DHT22;11380;50.822;15.790;2023-08-06T18:59:01;14.10;99.90
22426;DHT22;11380;50.822;15.790;2023-08-06T19:04:09;14.00;99.90
22426;DHT22;11380;50.822;15.790;2023-08-06T19:09:16;14.10;99.90
22426;DHT22;11380;50.822;15.790;2023-08-06T19:14:24;14.10;99.90
22426;DHT22;11380;50.822;15.790;2023-08-06T19:19:32;14.20;99.90
22426;DHT22;11380;50.822;15.790;2023-08-06T19:24:39;14.20;99.90
22426;DHT22;11380;50.822;15.790;2023-08-06T19:29:47;14.20;99.90
22426;DHT22;11380;50.822;15.790;2023-08-06T19:34:54;14.00;99.90
22426;DHT22;11380;50.822;15.790;2023-08-06T19:40:01;14.10;99.90
22426;DHT22;11380;50.822;15.790;2023-08-06T19:45:11;14.10;99.90
22426;DHT22;11380;50.822;15.790;2023-08-06T19:50:18;13.90;99.90
22426;DHT22;11380;50.822;15.790;2023-08-06T19:55:24;14.00;99.90
22426;DHT22;11380;50.822;15.790;2023-08-06T20:00:31;14.10;99.90
22426;DHT22;11380;50.822;15.790;2023-08-06T20:05:38;14.00;99.90
22426;DHT22;11380;50.822;15.790;2023-08-06T20:10:48;14.00;99.90
22426;DHT22;11380;50.822;15.790;2023-08-06T20:15:57;14.00;99.90
22426;DHT22;11380;50.822;15.790;2023-08-06T20:21:06;14.00;99.90
22426;DHT22;11380;50.822;15.790;2023-08-06T20:26:13;13.90;99.90
22426;DHT22;11380;50.822;15.790;2023-08-06T20:31:20;14.00;99.90
22426;DHT22;11380;50.822;15.790;2023-08-06T20:36:27;13.90;99.90
22426;DHT22;11380;50.822;15.790;2023-08-06T20:41:34;13.90;99.90
22426;DHT22;11380;50.822;15.790;2023-08-06T20:46:42;13.90;99.90
22426;DHT22;11380;50.822;15.790;2023-08-06T20:51:49;14.00;99.90
22426;DHT22;11380;50.822;15.790;2023-08-06T20:56:56;14.10;99.90
22426;DHT22;11380;50.822;15.790;2023-08-06T21:02:04;14.00;99.90
22426;DHT22;11380;50.822;15.790;2023-08-06T21:07:11;13.90;99.90
22426;DHT22;11380;50.822;15.790;2023-08-06T21:12:19;14.00;99.90
22426;DHT22;11380;50.822;15.790;2023-08-06T21:17:26;14.00;99.90
22426;DHT22;11380;50.822;15.790;2023-08-06T21:22:33;13.90;99.90
22426;DHT22;11380;50.822;15.790;2023-08-06T21:27:40;13.90;99.90
22426;DHT22;11380;50.822;15.790;2023-08-06T21:32:49;13.70;99.90
22426;DHT22;11380;50.822;15.790;2023-08-06T21:37:55;13.70;99.90
22426;DHT22;11380;50.822;15.790;2023-08-06T21:43:01;13.80;99.90
22426;DHT22;11380;50.822;15.790;2023-08-06T21:48:09;13.80;99.90
22426;DHT22;11380;50.822;15.790;2023-08-06T21:53:16;13.80;99.90
22426;DHT22;11380;50.822;15.790;2023-08-06T21:58:23;13.70;99.90
22426;DHT22;11380;50.822;15.790;2023-08-06T22:03:30;13.70;99.90
22426;DHT22;11380;50.822;15.790;2023-08-06T22:08:38;13.50;99.90
22426;DHT22;11380;50.822;15.790;2023-08-06T22:13:46;13.40;99.90
22426;DHT22;11380;50.822;15.790;2023-08-06T22:18:53;13.50;99.90
22426;DHT22;11380;50.822;15.790;2023-08-06T22:24:00;13.70;99.90
22426;DHT22;11380;50.822;15.790;2023-08-06T22:29:09;13.70;99.90
22426;DHT22;11380;50.822;15.790;2023-08-06T22:34:16;13.80;99.90
22426;DHT22;11380;50.822;15.790;2023-08-06T22:39:23;13.80;99.90
22426;DHT22;11380;50.822;15.790;2023-08-06T22:44:31;13.70;99.90
22426;DHT22;11380;50.822;15.790;2023-08-06T22:49:38;13.80;99.90
22426;DHT22;11380;50.822;15.790;2023-08-06T22:54:45;13.80;99.90
22426;DHT22;11380;50.822;15.790;2023-08-06T22:59:54;13.70;99.90
22426;DHT22;11380;50.822;15.790;2023-08-06T23:05:02;13.70;99.90
22426;DHT22;11380;50.822;15.790;2023-08-06T23:10:10;13.70;99.90
22426;DHT22;11380;50.822;15.790;2023-08-06T23:15:18;13.70;99.90
22426;DHT22;11380;50.822;15.790;2023-08-06T23:20:25;13.80;99.90
22426;DHT22;11380;50.822;15.790;2023-08-06T23:25:36;13.70;99.90
22426;DHT22;11380;50.822;15.790;2023-08-06T23:30:43;13.80;99.90
22426;DHT22;11380;50.822;15.790;2023-08-06T23:35:52;13.70;99.90
22426;DHT22;11380;50.822;15.790;2023-08-06T23:40:59;13.60;99.90
22426;DHT22;11380;50.822;15.790;2023-08-06T23:46:06;13.60;99.90
22426;DHT22;11380;50.822;15.790;2023-08-06T23:51:13;13.50;99.90
22426;DHT22;11380;50.822;15.790;2023-08-06T23:56:19;13.50;99.90
